createdAt,value
2022-10-30T00:00:48.721Z,100276.81
2022-10-30T00:03:16.745Z,100274.34
2022-10-30T00:05:45.623Z,100258.84
2022-10-30T00:08:13.786Z,100269.38
2022-10-30T00:10:41.385Z,100263.03
2022-10-30T00:13:08.688Z,100236.38
2022-10-30T00:15:35.936Z,100242.13
2022-10-30T00:18:03.199Z,100246.63
2022-10-30T00:20:30.268Z,100234.63
2022-10-30T00:22:57.381Z,100248.84
2022-10-30T00:25:24.200Z,100228.97
2022-10-30T00:27:50.828Z,100247.75
2022-10-30T00:30:18.827Z,100241.78
2022-10-30T00:32:45.567Z,100222.25
2022-10-30T00:35:12.483Z,100250.28
2022-10-30T00:37:39.551Z,100248.91
2022-10-30T00:40:07.509Z,100246.50
2022-10-30T00:42:34.250Z,100217.19
2022-10-30T00:45:03.875Z,100231.50
2022-10-30T00:47:40.939Z,100248.22
2022-10-30T00:50:36.308Z,100252.34
2022-10-30T00:53:08.947Z,100243.72
2022-10-30T00:55:43.848Z,100259.16
2022-10-30T00:58:15.414Z,100266.84
2022-10-30T01:00:51.995Z,100260.19
2022-10-30T01:03:21.848Z,100233.16
2022-10-30T01:05:54.991Z,100262.03
2022-10-30T01:08:21.880Z,100265.75
2022-10-30T01:10:49.498Z,100240.47
2022-10-30T01:13:20.737Z,100261.59
2022-10-30T01:15:57.649Z,100264.84
2022-10-30T01:18:38.800Z,100257.59
2022-10-30T01:21:26.841Z,100252.41
2022-10-30T01:24:07.160Z,100254.59
2022-10-30T01:27:11.543Z,100251.13
2022-10-30T01:29:59.930Z,100261.94
2022-10-30T01:32:39.814Z,100254.22
2022-10-30T01:35:33.487Z,100255.34
2022-10-30T01:38:19.169Z,100252.41
2022-10-30T01:40:48.579Z,100232.66
2022-10-30T01:43:15.742Z,100240.28
2022-10-30T01:45:54.070Z,100239.00
2022-10-30T01:48:51.800Z,100238.13
2022-10-30T01:51:42.956Z,100238.06
2022-10-30T01:54:23.452Z,100240.16
2022-10-30T01:56:57.237Z,100247.53
2022-10-30T01:59:39.936Z,100232.66
2022-10-30T02:02:08.471Z,100229.19
2022-10-30T02:04:36.254Z,100243.00
2022-10-30T02:07:03.382Z,100219.13
2022-10-30T02:09:35.617Z,100244.59
2022-10-30T02:12:03.133Z,100231.59
2022-10-30T02:14:36.184Z,100238.25
2022-10-30T02:17:06.885Z,100247.53
2022-10-30T02:19:34.237Z,100244.13
2022-10-30T02:22:03.114Z,100222.63
2022-10-30T02:24:31.152Z,100228.28
2022-10-30T02:26:58.929Z,100243.41
2022-10-30T02:29:25.748Z,100238.19
2022-10-30T02:31:52.445Z,100203.28
2022-10-30T02:34:19.209Z,100225.72
2022-10-30T02:36:45.905Z,100238.84
2022-10-30T02:39:12.731Z,100238.66
2022-10-30T02:41:39.373Z,100234.69
2022-10-30T02:44:06.659Z,100240.03
2022-10-30T02:46:34.176Z,100215.44
2022-10-30T02:49:00.888Z,100235.25
2022-10-30T02:51:27.705Z,100238.53
2022-10-30T02:53:54.390Z,100223.16
2022-10-30T02:56:21.059Z,100235.88
2022-10-30T02:58:47.805Z,100203.38
2022-10-30T03:01:17.850Z,100228.28
2022-10-30T03:03:45.295Z,100233.94
2022-10-30T03:06:15.564Z,100233.47
2022-10-30T03:08:42.981Z,100223.91
2022-10-30T03:11:12.473Z,100246.75
2022-10-30T03:13:40.997Z,100243.09
2022-10-30T03:16:21.821Z,100245.75
2022-10-30T03:18:50.125Z,100223.63
2022-10-30T03:21:19.139Z,100240.31
2022-10-30T03:23:45.871Z,100210.78
2022-10-30T03:26:12.866Z,100234.81
2022-10-30T03:28:48.377Z,100238.63
2022-10-30T03:31:17.730Z,100242.53
2022-10-30T03:33:45.568Z,100232.19
2022-10-30T03:36:14.163Z,100244.41
2022-10-30T03:38:41.315Z,100222.34
2022-10-30T03:41:09.676Z,100241.75
2022-10-30T03:43:36.421Z,100245.44
2022-10-30T03:46:03.435Z,100246.28
2022-10-30T03:48:30.610Z,100245.13
2022-10-30T03:50:59.559Z,100241.75
2022-10-30T03:53:28.459Z,100252.75
2022-10-30T03:56:00.800Z,100245.13
2022-10-30T03:58:31.992Z,100251.44
2022-10-30T04:01:05.925Z,100252.44
2022-10-30T04:03:35.853Z,100266.59
2022-10-30T04:06:02.978Z,100231.41
2022-10-30T04:08:29.656Z,100252.16
2022-10-30T04:10:57.552Z,100256.16
2022-10-30T04:13:24.512Z,100257.16
2022-10-30T04:15:56.018Z,100260.31
2022-10-30T04:18:25.468Z,100256.00
2022-10-30T04:20:59.546Z,100254.81
2022-10-30T04:23:26.239Z,100247.72
2022-10-30T04:25:53.602Z,100246.06
2022-10-30T04:28:21.469Z,100230.41
2022-10-30T04:30:48.695Z,100227.06
2022-10-30T04:33:16.884Z,100231.81
2022-10-30T04:35:43.875Z,100242.50
2022-10-30T04:38:15.610Z,100231.41
2022-10-30T04:40:44.503Z,100216.53
2022-10-30T04:43:13.405Z,100229.56
2022-10-30T04:45:41.186Z,100233.94
2022-10-30T04:48:16.419Z,100233.16
2022-10-30T04:50:44.000Z,100231.53
2022-10-30T04:53:17.001Z,100235.84
2022-10-30T04:55:46.051Z,100233.19
2022-10-30T04:58:13.774Z,100232.88
2022-10-30T05:00:43.254Z,100234.03
2022-10-30T05:03:20.464Z,100220.94
2022-10-30T05:05:56.087Z,100177.72
2022-10-30T05:08:22.784Z,100217.22
2022-10-30T05:10:49.505Z,100221.69
2022-10-30T05:13:16.272Z,100219.75
2022-10-30T05:15:43.119Z,100224.34
2022-10-30T05:18:09.915Z,100207.16
2022-10-30T05:20:36.645Z,100221.16
2022-10-30T05:23:04.181Z,100205.69
2022-10-30T05:25:31.323Z,100210.13
2022-10-30T05:28:06.027Z,100205.50
2022-10-30T05:30:39.520Z,100214.78
2022-10-30T05:33:15.843Z,100209.66
2022-10-30T05:35:42.740Z,100207.34
2022-10-30T05:38:10.916Z,100199.09
2022-10-30T05:40:38.067Z,100216.94
2022-10-30T05:43:04.973Z,100223.13
2022-10-30T05:45:32.716Z,100221.31
2022-10-30T05:48:05.714Z,100219.88
2022-10-30T05:50:39.229Z,100226.19
2022-10-30T05:53:19.495Z,100226.53
2022-10-30T05:55:46.187Z,100240.72
2022-10-30T05:58:18.870Z,100237.63
2022-10-30T06:00:46.337Z,100239.09
2022-10-30T06:03:18.176Z,100232.44
2022-10-30T06:05:46.733Z,100233.41
2022-10-30T06:08:16.246Z,100240.53
2022-10-30T06:10:44.028Z,100219.88
2022-10-30T06:13:16.424Z,100240.72
2022-10-30T06:15:54.623Z,100236.47
2022-10-30T06:18:21.949Z,100234.94
2022-10-30T06:20:54.929Z,100221.41
2022-10-30T06:23:30.457Z,100196.47
2022-10-30T06:26:07.895Z,100216.34
2022-10-30T06:28:40.157Z,100230.56
2022-10-30T06:31:09.943Z,100228.22
2022-10-30T06:33:37.904Z,100226.03
2022-10-30T06:36:04.988Z,100239.44
2022-10-30T06:38:32.785Z,100212.34
2022-10-30T06:41:00.071Z,100226.69
2022-10-30T06:43:37.676Z,100240.94
2022-10-30T06:46:09.655Z,100252.47
2022-10-30T06:48:39.682Z,100253.00
2022-10-30T06:51:06.429Z,100249.88
2022-10-30T06:53:36.718Z,100243.28
2022-10-30T06:56:23.381Z,100245.44
2022-10-30T06:59:09.729Z,100257.47
2022-10-30T07:01:44.985Z,100256.63
2022-10-30T07:04:17.054Z,100262.91
2022-10-30T07:06:44.521Z,100208.38
2022-10-30T07:09:11.296Z,100263.41
2022-10-30T07:11:40.124Z,100280.13
2022-10-30T07:14:28.471Z,100286.56
2022-10-30T07:17:12.860Z,100254.91
2022-10-30T07:19:42.033Z,100275.97
2022-10-30T07:22:08.820Z,100274.06
2022-10-30T07:24:38.021Z,100259.16
2022-10-30T07:27:16.622Z,100272.53
2022-10-30T07:30:03.796Z,100279.09
2022-10-30T07:32:40.606Z,100279.69
2022-10-30T07:35:14.721Z,100289.34
2022-10-30T07:38:04.783Z,100260.13
2022-10-30T07:40:44.187Z,100256.03
2022-10-30T07:43:29.775Z,100282.44
2022-10-30T07:46:22.442Z,100281.63
2022-10-30T07:49:15.010Z,100245.28
2022-10-30T07:51:48.180Z,100251.63
2022-10-30T07:54:15.629Z,100274.13
2022-10-30T07:56:42.635Z,100265.88
2022-10-30T07:59:27.784Z,100246.19
2022-10-30T08:01:57.434Z,100221.81
2022-10-30T08:04:45.747Z,100240.03
2022-10-30T08:07:34.188Z,100233.34
2022-10-30T08:10:01.366Z,100237.69
2022-10-30T08:12:28.356Z,100228.88
2022-10-30T08:14:55.429Z,100218.00
2022-10-30T08:17:22.240Z,100200.75
2022-10-30T08:19:49.632Z,100203.88
2022-10-30T08:22:17.374Z,100204.41
2022-10-30T08:24:48.757Z,100203.31
2022-10-30T08:27:16.325Z,100195.22
2022-10-30T08:29:43.016Z,100172.94
2022-10-30T08:32:09.701Z,100176.88
2022-10-30T08:34:54.853Z,100188.28
2022-10-30T08:37:21.808Z,100165.53
2022-10-30T08:39:48.500Z,100173.81
2022-10-30T08:42:51.076Z,100160.47
2022-10-30T08:45:18.223Z,100169.59
2022-10-30T08:47:58.191Z,100146.34
2022-10-30T08:50:27.646Z,100143.38
2022-10-30T08:52:54.915Z,100138.44
2022-10-30T08:55:22.178Z,100126.50
2022-10-30T08:57:49.341Z,100144.34
2022-10-30T09:00:16.183Z,100130.25
2022-10-30T09:03:02.224Z,100115.81
2022-10-30T09:05:32.307Z,100115.84
2022-10-30T09:08:17.275Z,100097.28
2022-10-30T09:11:06.913Z,100113.03
2022-10-30T09:13:33.703Z,100100.31
2022-10-30T09:16:03.048Z,100108.22
2022-10-30T09:18:32.602Z,100099.78
2022-10-30T09:21:03.035Z,100107.47
2022-10-30T09:23:34.165Z,100094.09
2022-10-30T09:26:23.544Z,100093.75
2022-10-30T09:28:55.817Z,100083.63
2022-10-30T09:31:41.163Z,100097.34
2022-10-30T09:34:13.455Z,100102.75
2022-10-30T09:36:46.340Z,100090.38
2022-10-30T09:39:13.272Z,100103.31
2022-10-30T09:42:01.912Z,100110.22
2022-10-30T09:44:56.533Z,100093.78
2022-10-30T09:47:33.300Z,100085.81
2022-10-30T09:50:12.055Z,100093.91
2022-10-30T09:53:00.699Z,100080.63
2022-10-30T09:55:35.519Z,100092.50
2022-10-30T09:58:14.648Z,100098.47
2022-10-30T10:00:57.845Z,100093.78
2022-10-30T10:06:46.802Z,100079.78
2022-10-30T10:09:37.792Z,100101.53
2022-10-30T10:12:46.649Z,100107.88
2022-10-30T10:15:39.418Z,100099.63
2022-10-30T10:18:16.317Z,100085.41
2022-10-30T10:20:47.098Z,100097.75
2022-10-30T10:23:50.132Z,100103.50
2022-10-30T10:26:28.504Z,100094.22
2022-10-30T10:28:58.235Z,100089.44
2022-10-30T10:31:33.367Z,100071.34
2022-10-30T10:34:28.011Z,100068.69
2022-10-30T10:37:20.849Z,100081.78
2022-10-30T10:40:03.224Z,100085.59
2022-10-30T10:42:36.641Z,100085.63
2022-10-30T10:45:18.305Z,100079.09
2022-10-30T10:48:06.170Z,100085.25
2022-10-30T10:50:42.141Z,100076.41
2022-10-30T10:53:33.602Z,100084.88
2022-10-30T10:56:01.487Z,100064.94
2022-10-30T10:58:51.558Z,100094.78
2022-10-30T11:01:23.676Z,100079.69
2022-10-30T11:03:54.787Z,100063.31
2022-10-30T11:06:27.167Z,100074.75
2022-10-30T11:09:02.446Z,100051.31
2022-10-30T11:11:29.203Z,100059.91
2022-10-30T11:13:56.211Z,100053.91
2022-10-30T11:16:25.720Z,100069.28
2022-10-30T11:18:58.092Z,100067.88
2022-10-30T11:21:26.882Z,100058.94
2022-10-30T11:23:53.957Z,100063.63
2022-10-30T11:26:20.611Z,100057.78
2022-10-30T11:28:59.881Z,100062.91
2022-10-30T11:31:34.267Z,100074.84
2022-10-30T11:34:39.451Z,100058.66
2022-10-30T11:37:30.570Z,100059.75
2022-10-30T11:40:04.155Z,100064.31
2022-10-30T11:42:31.299Z,100049.34
2022-10-30T11:44:58.177Z,100043.50
2022-10-30T11:50:06.123Z,100037.06
2022-10-30T11:52:40.070Z,100056.31
2022-10-30T11:55:31.813Z,100048.16
2022-10-30T11:57:59.586Z,100040.28
2022-10-30T12:00:31.916Z,100052.69
2022-10-30T12:03:03.631Z,100052.97
2022-10-30T12:05:33.155Z,100041.88
2022-10-30T12:08:08.690Z,100035.38
2022-10-30T12:11:01.875Z,100036.50
2022-10-30T12:13:36.476Z,100024.59
2022-10-30T12:16:16.502Z,100035.41
2022-10-30T12:18:58.269Z,100037.03
2022-10-30T12:21:26.890Z,100031.50
2022-10-30T12:23:57.331Z,100049.13
2022-10-30T12:26:25.899Z,100038.91
2022-10-30T12:29:00.575Z,100037.06
2022-10-30T12:31:36.961Z,100028.34
2022-10-30T12:34:09.427Z,100025.38
2022-10-30T12:36:45.577Z,100021.03
2022-10-30T12:39:12.243Z,100026.16
2022-10-30T12:42:26.860Z,100030.69
2022-10-30T12:45:12.313Z,100033.56
2022-10-30T12:47:49.577Z,100009.22
2022-10-30T12:50:19.837Z,100028.47
2022-10-30T12:52:58.210Z,100033.16
2022-10-30T12:55:34.236Z,100033.75
2022-10-30T12:58:22.016Z,100019.41
2022-10-30T13:01:11.700Z,100008.00
2022-10-30T13:03:46.282Z,100000.44
2022-10-30T13:06:19.399Z,100003.69
2022-10-30T13:09:11.198Z,99995.28
2022-10-30T13:12:02.471Z,99998.25
2022-10-30T13:14:42.705Z,100002.06
2022-10-30T13:17:12.199Z,99980.09
2022-10-30T13:19:44.986Z,100006.13
2022-10-30T13:22:24.001Z,99989.59
2022-10-30T13:24:59.220Z,99988.22
2022-10-30T13:27:45.362Z,99988.75
2022-10-30T13:30:21.929Z,99994.19
2022-10-30T13:32:54.686Z,99988.75
2022-10-30T13:35:33.020Z,99985.53
2022-10-30T13:38:27.493Z,100001.50
2022-10-30T13:41:04.230Z,99961.13
2022-10-30T13:43:53.737Z,99970.34
2022-10-30T13:46:32.349Z,99985.53
2022-10-30T13:49:23.430Z,99985.50
2022-10-30T13:52:19.764Z,99988.22
2022-10-30T13:55:02.047Z,99986.25
2022-10-30T13:57:37.265Z,100005.19
2022-10-30T14:00:21.601Z,100001.59
2022-10-30T14:03:22.123Z,99987.72
2022-10-30T14:05:52.505Z,99988.28
2022-10-30T14:08:37.846Z,99981.25
2022-10-30T14:11:11.884Z,99972.78
2022-10-30T14:13:46.316Z,99986.28
2022-10-30T14:16:43.545Z,99973.53
2022-10-30T14:19:15.290Z,99972.69
2022-10-30T14:21:55.711Z,99978.06
2022-10-30T14:24:34.732Z,99977.28
2022-10-30T14:27:04.440Z,99960.72
2022-10-30T14:29:36.701Z,99960.75
2022-10-30T14:32:15.634Z,99974.56
2022-10-30T14:34:52.377Z,99945.25
2022-10-30T14:37:39.017Z,99953.13
2022-10-30T14:40:50.525Z,99963.66
2022-10-30T14:43:29.082Z,99969.78
2022-10-30T14:46:10.422Z,99948.44
2022-10-30T14:48:51.784Z,99946.97
2022-10-30T14:51:25.057Z,99969.69
2022-10-30T14:54:02.887Z,99965.84
2022-10-30T14:56:45.164Z,99969.22
2022-10-30T14:59:14.878Z,99963.69
2022-10-30T15:01:56.937Z,99967.81
2022-10-30T15:04:45.276Z,99967.41
2022-10-30T15:07:51.294Z,99973.91
2022-10-30T15:10:21.908Z,99974.28
2022-10-30T15:13:19.123Z,99955.19
2022-10-30T15:15:46.487Z,99975.81
2022-10-30T15:18:19.712Z,99996.88
2022-10-30T15:20:54.748Z,99999.69
2022-10-30T15:23:21.398Z,100021.66
2022-10-30T15:25:52.424Z,99986.44
2022-10-30T15:28:22.779Z,100016.25
2022-10-30T15:31:25.335Z,100023.91
2022-10-30T15:33:54.325Z,100021.88
2022-10-30T15:36:22.232Z,100047.06
2022-10-30T15:39:11.021Z,100050.66
2022-10-30T15:41:43.861Z,100048.47
2022-10-30T15:44:14.524Z,100062.91
2022-10-30T15:46:45.335Z,100068.84
2022-10-30T15:49:19.352Z,100067.34
2022-10-30T15:51:47.495Z,100074.34
2022-10-30T15:54:21.125Z,100072.25
2022-10-30T15:57:27.062Z,100070.94
2022-10-30T15:59:37.203Z,100041.50
2022-10-30T16:02:21.195Z,100068.47
2022-10-30T16:04:48.350Z,100072.78
2022-10-30T16:07:22.020Z,100061.25
2022-10-30T16:10:02.776Z,100080.16
2022-10-30T16:12:34.346Z,100092.94
2022-10-30T16:15:07.634Z,100059.78
2022-10-30T16:17:35.049Z,100087.34
2022-10-30T16:20:04.377Z,100096.59
2022-10-30T16:22:37.398Z,100096.31
2022-10-30T16:25:07.657Z,100104.19
2022-10-30T16:27:34.438Z,100116.03
2022-10-30T16:30:02.070Z,100096.38
2022-10-30T16:32:31.122Z,100107.50
2022-10-30T16:34:59.649Z,100113.38
2022-10-30T16:37:37.814Z,100113.22
2022-10-30T16:40:22.617Z,100119.72
2022-10-30T16:42:54.689Z,100119.41
2022-10-30T16:45:24.496Z,100112.09
2022-10-30T16:47:58.251Z,100102.94
2022-10-30T16:50:33.381Z,100101.38
2022-10-30T16:53:20.605Z,100121.75
2022-10-30T16:55:47.699Z,100105.22
2022-10-30T16:58:16.491Z,100123.50
2022-10-30T17:00:50.894Z,100120.25
2022-10-30T17:03:22.975Z,100108.63
2022-10-30T17:06:01.597Z,100132.50
2022-10-30T17:08:39.539Z,100126.81
2022-10-30T17:11:15.534Z,100136.28
2022-10-30T17:13:54.395Z,100141.88
2022-10-30T17:16:25.504Z,100144.19
2022-10-30T17:18:54.707Z,100147.91
2022-10-30T17:21:25.103Z,100132.34
2022-10-30T17:23:54.548Z,100156.59
2022-10-30T17:26:21.382Z,100154.53
2022-10-30T17:28:48.855Z,100158.41
2022-10-30T17:31:18.283Z,100152.28
2022-10-30T17:34:04.348Z,100151.47
2022-10-30T17:36:31.024Z,100153.31
2022-10-30T17:38:57.756Z,100165.22
2022-10-30T17:41:24.594Z,100143.44
2022-10-30T17:43:53.367Z,100164.59
2022-10-30T17:46:20.835Z,100165.81
2022-10-30T17:48:48.271Z,100161.94
2022-10-30T17:51:17.280Z,100158.66
2022-10-30T17:53:44.271Z,100159.06
2022-10-30T17:56:19.355Z,100161.50
2022-10-30T17:58:46.207Z,100170.34
2022-10-30T18:01:25.200Z,100171.97
2022-10-30T18:03:55.075Z,100174.81
2022-10-30T18:06:27.059Z,100188.56
2022-10-30T18:08:54.543Z,100189.78
2022-10-30T18:11:23.909Z,100186.69
2022-10-30T18:13:52.321Z,100193.25
2022-10-30T18:16:19.832Z,100194.91
2022-10-30T18:18:47.943Z,100195.28
2022-10-30T18:21:16.875Z,100206.78
2022-10-30T18:23:52.329Z,100207.97
2022-10-30T18:26:23.739Z,100201.56
2022-10-30T18:28:50.893Z,100207.44
2022-10-30T18:31:20.967Z,100229.81
2022-10-30T18:33:48.206Z,100216.38
2022-10-30T18:36:25.396Z,100243.50
2022-10-30T18:38:52.793Z,100226.81
2022-10-30T18:41:21.418Z,100238.75
2022-10-30T18:43:48.298Z,100222.91
2022-10-30T18:46:16.700Z,100223.66
2022-10-30T18:48:44.422Z,100230.84
2022-10-30T18:51:17.058Z,100262.47
2022-10-30T18:53:51.385Z,100269.88
2022-10-30T18:56:23.544Z,100273.28
2022-10-30T18:58:54.848Z,100276.53
2022-10-30T19:01:26.067Z,100270.00
2022-10-30T19:03:52.990Z,100254.38
2022-10-30T19:06:24.246Z,100252.59
2022-10-30T19:08:51.117Z,100243.72
2022-10-30T19:11:24.603Z,100252.75
2022-10-30T19:13:53.054Z,100268.50
2022-10-30T19:16:20.228Z,100266.81
2022-10-30T19:18:48.367Z,100266.38
2022-10-30T19:21:21.758Z,100274.75
2022-10-30T19:23:48.709Z,100282.91
2022-10-30T19:26:16.207Z,100246.72
2022-10-30T19:28:44.068Z,100256.75
2022-10-30T19:31:14.631Z,100259.03
2022-10-30T19:33:41.400Z,100261.44
2022-10-30T19:36:28.434Z,100284.00
2022-10-30T19:38:56.033Z,100284.97
2022-10-30T19:41:24.804Z,100270.47
2022-10-30T19:43:52.786Z,100281.16
2022-10-30T19:46:19.832Z,100282.31
2022-10-30T19:49:01.850Z,100269.06
2022-10-30T19:51:28.830Z,100274.66
2022-10-30T19:53:56.035Z,100286.81
2022-10-30T19:56:23.266Z,100285.16
2022-10-30T19:58:50.532Z,100289.47
2022-10-30T20:01:17.582Z,100288.00
2022-10-30T20:03:44.534Z,100284.72
2022-10-30T20:06:12.427Z,100287.97
2022-10-30T20:08:39.340Z,100256.94
2022-10-30T20:11:06.074Z,100263.09
2022-10-30T20:13:33.483Z,100292.28
2022-10-30T20:16:02.886Z,100276.16
2022-10-30T20:18:31.697Z,100276.47
2022-10-30T20:21:01.055Z,100291.66
2022-10-30T20:23:28.716Z,100285.06
2022-10-30T20:26:01.531Z,100284.44
2022-10-30T20:28:35.341Z,100290.38
2022-10-30T20:31:02.471Z,100294.44
2022-10-30T20:33:29.607Z,100267.75
2022-10-30T20:35:56.350Z,100286.84
2022-10-30T20:38:31.614Z,100288.41
2022-10-30T20:41:03.393Z,100279.63
2022-10-30T20:43:31.935Z,100298.41
2022-10-30T20:46:00.241Z,100298.47
2022-10-30T20:48:28.630Z,100294.75
2022-10-30T20:51:00.045Z,100298.22
2022-10-30T20:53:27.779Z,100285.28
2022-10-30T20:55:54.720Z,100297.59
2022-10-30T20:58:21.822Z,100304.91
2022-10-30T21:00:48.667Z,100286.59
2022-10-30T21:03:16.262Z,100283.03
2022-10-30T21:05:45.700Z,100307.03
2022-10-30T21:08:14.176Z,100308.94
2022-10-30T21:10:41.950Z,100312.13
2022-10-30T21:13:10.706Z,100316.38
2022-10-30T21:15:42.522Z,100311.09
2022-10-30T21:18:10.453Z,100317.59
2022-10-30T21:20:37.418Z,100294.22
2022-10-30T21:23:04.684Z,100308.78
2022-10-30T21:25:32.402Z,100335.09
2022-10-30T21:28:00.195Z,100328.09
2022-10-30T21:30:27.468Z,100339.19
2022-10-30T21:32:54.343Z,100334.75
2022-10-30T21:35:21.234Z,100324.69
2022-10-30T21:37:48.106Z,100340.72
2022-10-30T21:40:14.869Z,100313.44
2022-10-30T21:42:41.554Z,100343.06
2022-10-30T21:45:09.232Z,100339.56
2022-10-30T21:47:35.891Z,100350.69
2022-10-30T21:50:06.409Z,100346.72
2022-10-30T21:52:34.807Z,100339.75
2022-10-30T21:55:01.530Z,100342.22
2022-10-30T21:57:29.183Z,100323.69
2022-10-30T21:59:58.723Z,100342.53
2022-10-30T22:02:31.217Z,100336.41
2022-10-30T22:04:57.870Z,100317.84
2022-10-30T22:07:24.590Z,100301.69
2022-10-30T22:09:51.312Z,100329.72
2022-10-30T22:12:17.926Z,100336.69
2022-10-30T22:14:44.540Z,100340.81
2022-10-30T22:17:12.668Z,100324.66
2022-10-30T22:19:39.378Z,100319.22
2022-10-30T22:22:06.809Z,100347.53
2022-10-30T22:24:33.503Z,100295.00
2022-10-30T22:27:00.371Z,100332.06
2022-10-30T22:29:27.132Z,100342.16
2022-10-30T22:31:53.814Z,100332.72
2022-10-30T22:34:20.522Z,100334.72
2022-10-30T22:36:47.225Z,100322.84
2022-10-30T22:39:14.295Z,100309.97
2022-10-30T22:41:41.603Z,100329.16
2022-10-30T22:44:12.737Z,100336.63
2022-10-30T22:46:39.948Z,100346.28
2022-10-30T22:49:07.480Z,100345.28
2022-10-30T22:51:35.991Z,100332.69
2022-10-30T22:54:06.568Z,100342.97
2022-10-30T22:56:35.485Z,100349.81
2022-10-30T22:59:06.071Z,100342.38
2022-10-30T23:01:34.724Z,100341.59
2022-10-30T23:04:03.177Z,100335.78
2022-10-30T23:06:31.306Z,100346.19
2022-10-30T23:09:01.027Z,100342.25
2022-10-30T23:11:28.732Z,100349.16
2022-10-30T23:13:55.915Z,100348.53
2022-10-30T23:16:24.950Z,100344.56
2022-10-30T23:18:54.490Z,100321.13
2022-10-30T23:21:23.535Z,100336.66
2022-10-30T23:23:50.467Z,100334.00
2022-10-30T23:26:26.243Z,100338.31
2022-10-30T23:28:54.746Z,100340.16
2022-10-30T23:31:27.264Z,100346.44
2022-10-30T23:33:56.433Z,100350.91
2022-10-30T23:36:23.656Z,100336.34
2022-10-30T23:38:55.648Z,100349.75
2022-10-30T23:41:24.237Z,100342.97
2022-10-30T23:44:02.234Z,100352.59
2022-10-30T23:46:29.395Z,100357.13
2022-10-30T23:48:56.784Z,100360.59
2022-10-30T23:51:23.941Z,100355.28
2022-10-30T23:53:50.800Z,100353.13
2022-10-30T23:56:18.289Z,100355.28
2022-10-30T23:58:49.870Z,100357.28
